createdAt,value
2022-12-17T00:00:28.179Z,0.85
2022-12-17T00:03:17.684Z,0.88
2022-12-17T00:06:03.548Z,0.76
2022-12-17T00:08:49.183Z,0.90
2022-12-17T00:11:34.464Z,0.67
2022-12-17T00:14:19.517Z,0.80
2022-12-17T00:17:04.715Z,0.97
2022-12-17T00:19:49.934Z,1.25
2022-12-17T00:22:35.146Z,1.28
2022-12-17T00:25:20.395Z,0.90
2022-12-17T00:28:05.531Z,1.10
2022-12-17T00:30:50.711Z,0.85
2022-12-17T00:33:38.018Z,1.10
2022-12-17T00:36:23.782Z,1.02
2022-12-17T00:39:09.074Z,1.12
2022-12-17T00:41:55.137Z,1.17
2022-12-17T00:44:41.316Z,1.21
2022-12-17T00:47:26.623Z,1.36
2022-12-17T00:50:13.021Z,1.30
2022-12-17T00:52:59.876Z,1.22
2022-12-17T00:55:45.040Z,1.27
2022-12-17T00:58:30.203Z,1.21
2022-12-17T01:01:19.682Z,1.05
2022-12-17T01:04:04.979Z,0.98
2022-12-17T01:06:50.177Z,1.40
2022-12-17T01:09:35.483Z,1.42
2022-12-17T01:12:20.753Z,0.94
2022-12-17T01:15:06.025Z,1.59
2022-12-17T01:17:51.263Z,1.51
2022-12-17T01:20:38.836Z,1.39
2022-12-17T01:23:26.752Z,1.28
2022-12-17T01:26:16.556Z,1.27
2022-12-17T01:29:02.386Z,1.69
2022-12-17T01:31:47.743Z,1.90
2022-12-17T01:34:35.506Z,1.57
2022-12-17T01:37:21.720Z,1.64
2022-12-17T01:40:07.003Z,1.59
2022-12-17T01:43:00.954Z,1.56
2022-12-17T01:45:54.819Z,1.62
2022-12-17T01:48:44.097Z,1.60
2022-12-17T01:51:30.191Z,1.43
2022-12-17T01:54:16.290Z,1.56
2022-12-17T01:57:02.090Z,1.50
2022-12-17T02:00:20.432Z,1.66
2022-12-17T02:03:05.586Z,1.49
2022-12-17T02:06:01.952Z,1.55
2022-12-17T02:09:05.099Z,1.35
2022-12-17T02:11:55.586Z,1.22
2022-12-17T02:14:51.895Z,1.22
2022-12-17T02:17:43.516Z,1.18
2022-12-17T02:20:37.904Z,1.08
2022-12-17T02:23:48.189Z,1.42
2022-12-17T02:27:02.756Z,1.48
2022-12-17T02:29:53.783Z,1.27
2022-12-17T02:32:43.887Z,1.50
2022-12-17T02:35:34.358Z,1.49
2022-12-17T02:38:19.301Z,1.36
2022-12-17T02:41:07.809Z,1.38
2022-12-17T02:43:55.284Z,1.13
2022-12-17T02:46:40.759Z,1.42
2022-12-17T02:49:26.003Z,1.29
2022-12-17T02:52:13.376Z,1.19
2022-12-17T02:54:58.667Z,1.48
2022-12-17T02:57:46.502Z,1.20
2022-12-17T03:00:34.941Z,1.21
2022-12-17T03:03:20.161Z,1.20
2022-12-17T03:06:05.624Z,1.09
2022-12-17T03:08:52.301Z,1.43
2022-12-17T03:11:51.599Z,1.76
2022-12-17T03:14:36.439Z,1.24
2022-12-17T03:17:21.196Z,1.66
2022-12-17T03:20:06.454Z,1.17
2022-12-17T03:22:51.320Z,1.16
2022-12-17T03:25:36.218Z,1.65
2022-12-17T03:28:26.780Z,1.33
2022-12-17T03:31:12.107Z,1.04
2022-12-17T03:33:57.282Z,1.14
2022-12-17T03:36:42.458Z,1.32
2022-12-17T03:39:27.738Z,1.13
2022-12-17T03:42:12.604Z,0.93
2022-12-17T03:44:57.484Z,1.05
2022-12-17T03:47:42.695Z,1.06
2022-12-17T03:50:28.068Z,1.73
2022-12-17T03:53:13.359Z,1.96
2022-12-17T03:55:58.419Z,1.34
2022-12-17T03:58:43.584Z,1.29
2022-12-17T04:01:29.079Z,1.90
2022-12-17T04:04:14.249Z,1.83
2022-12-17T04:07:03.895Z,1.30
2022-12-17T04:09:49.010Z,1.12
2022-12-17T04:12:34.376Z,1.84
2022-12-17T04:15:19.301Z,1.54
2022-12-17T04:18:04.400Z,1.91
2022-12-17T04:20:49.591Z,1.63
2022-12-17T04:23:35.079Z,1.60
2022-12-17T04:26:20.565Z,1.75
2022-12-17T04:29:05.803Z,1.36
2022-12-17T04:31:50.898Z,1.56
2022-12-17T04:34:35.762Z,1.44
2022-12-17T04:37:20.788Z,1.46
2022-12-17T04:40:05.661Z,1.43
2022-12-17T04:42:50.905Z,1.61
2022-12-17T04:45:35.711Z,1.65
2022-12-17T04:48:22.802Z,1.58
2022-12-17T04:51:07.985Z,1.26
2022-12-17T04:53:52.967Z,0.95
2022-12-17T04:56:38.029Z,1.18
2022-12-17T04:59:23.295Z,1.50
2022-12-17T05:02:08.651Z,1.00
2022-12-17T05:04:53.875Z,0.79
2022-12-17T05:07:39.139Z,1.08
2022-12-17T05:10:29.225Z,1.33
2022-12-17T05:13:17.021Z,1.54
2022-12-17T05:16:02.633Z,1.49
2022-12-17T05:18:58.603Z,1.45
2022-12-17T05:21:43.653Z,1.40
2022-12-17T05:24:28.457Z,1.08
2022-12-17T05:27:13.574Z,1.06
2022-12-17T05:29:58.464Z,1.25
2022-12-17T05:32:43.733Z,0.88
2022-12-17T05:35:28.793Z,1.22
2022-12-17T05:38:13.669Z,1.15
2022-12-17T05:40:58.960Z,1.23
2022-12-17T05:43:43.699Z,1.12
2022-12-17T05:46:28.591Z,1.28
2022-12-17T05:49:13.944Z,1.15
2022-12-17T05:51:58.833Z,0.66
2022-12-17T05:54:43.780Z,1.06
2022-12-17T05:57:28.909Z,0.88
2022-12-17T06:00:13.766Z,0.92
2022-12-17T06:02:58.979Z,1.08
2022-12-17T06:05:44.254Z,0.79
2022-12-17T06:08:29.280Z,0.78
2022-12-17T06:11:18.215Z,0.62
2022-12-17T06:14:03.797Z,0.75
2022-12-17T06:16:48.903Z,0.74
2022-12-17T06:19:34.208Z,0.98
2022-12-17T06:22:19.431Z,0.65
2022-12-17T06:25:04.718Z,0.69
2022-12-17T06:27:49.971Z,0.93
2022-12-17T06:30:35.054Z,0.49
2022-12-17T06:33:27.780Z,0.81
2022-12-17T06:36:21.628Z,0.93
2022-12-17T06:39:07.821Z,0.62
2022-12-17T06:41:52.942Z,0.67
2022-12-17T06:44:45.371Z,0.97
2022-12-17T06:47:33.467Z,0.78
2022-12-17T06:50:18.594Z,0.87
2022-12-17T06:53:03.886Z,1.08
2022-12-17T06:55:49.527Z,1.06
2022-12-17T06:58:34.919Z,0.71
2022-12-17T07:01:20.152Z,0.58
2022-12-17T07:04:05.359Z,0.45
2022-12-17T07:06:50.135Z,0.25
2022-12-17T07:09:35.336Z,0.95
2022-12-17T07:12:20.064Z,1.05
2022-12-17T07:15:05.039Z,1.15
2022-12-17T07:17:49.995Z,1.03
2022-12-17T07:20:34.971Z,0.86
2022-12-17T07:23:19.965Z,1.00
2022-12-17T07:26:04.813Z,0.91
2022-12-17T07:28:49.953Z,0.84
2022-12-17T07:31:35.101Z,0.64
2022-12-17T07:34:20.314Z,0.45
2022-12-17T07:37:05.656Z,0.69
2022-12-17T07:39:50.534Z,0.46
2022-12-17T07:42:35.635Z,0.90
2022-12-17T07:45:20.428Z,0.75
2022-12-17T07:48:12.503Z,0.71
2022-12-17T07:50:57.630Z,0.86
2022-12-17T07:53:42.386Z,0.96
2022-12-17T07:56:27.451Z,1.24
2022-12-17T07:59:12.715Z,0.76
2022-12-17T08:02:00.665Z,0.88
2022-12-17T08:04:45.968Z,1.10
2022-12-17T08:07:30.890Z,1.16
2022-12-17T08:10:16.158Z,1.17
2022-12-17T08:13:01.445Z,0.92
2022-12-17T08:15:46.616Z,0.99
2022-12-17T08:18:31.693Z,0.65
2022-12-17T08:21:16.801Z,0.98
2022-12-17T08:24:01.713Z,1.01
2022-12-17T08:26:48.338Z,0.71
2022-12-17T08:29:33.679Z,1.25
2022-12-17T08:32:18.647Z,1.47
2022-12-17T08:35:03.781Z,1.27
2022-12-17T08:37:49.099Z,1.16
2022-12-17T08:40:34.551Z,1.02
2022-12-17T08:43:19.724Z,0.88
2022-12-17T08:46:09.642Z,1.43
2022-12-17T08:48:55.912Z,1.23
2022-12-17T08:51:42.490Z,1.24
2022-12-17T08:54:28.009Z,1.29
2022-12-17T08:57:16.289Z,1.12
2022-12-17T09:00:07.456Z,1.29
2022-12-17T09:02:52.481Z,0.75
2022-12-17T09:05:37.846Z,1.18
2022-12-17T09:08:25.324Z,1.07
2022-12-17T09:11:11.471Z,1.53
2022-12-17T09:13:57.050Z,1.53
2022-12-17T09:16:42.384Z,1.56
2022-12-17T09:19:29.053Z,1.18
2022-12-17T09:22:14.226Z,1.45
2022-12-17T09:24:59.096Z,1.19
2022-12-17T09:27:44.330Z,1.08
2022-12-17T09:30:30.144Z,1.21
2022-12-17T09:33:15.374Z,1.31
2022-12-17T09:36:00.440Z,1.28
2022-12-17T09:38:45.513Z,1.32
2022-12-17T09:41:46.781Z,1.38
2022-12-17T09:44:41.468Z,1.65
2022-12-17T09:47:32.802Z,2.50
2022-12-17T09:50:22.972Z,2.27
2022-12-17T09:53:08.282Z,2.33
2022-12-17T09:56:02.156Z,2.22
2022-12-17T09:58:48.753Z,1.98
2022-12-17T10:01:40.165Z,2.35
2022-12-17T10:04:33.111Z,2.16
2022-12-17T10:07:20.254Z,2.42
2022-12-17T10:10:07.739Z,2.24
2022-12-17T10:12:52.707Z,2.61
2022-12-17T10:15:37.931Z,2.39
2022-12-17T10:18:25.696Z,2.26
2022-12-17T10:21:17.541Z,2.56
2022-12-17T10:24:02.891Z,2.34
2022-12-17T10:26:50.836Z,2.20
2022-12-17T10:29:48.067Z,2.41
2022-12-17T10:32:33.283Z,2.24
2022-12-17T10:35:43.375Z,2.17
2022-12-17T10:38:45.921Z,2.70
2022-12-17T10:42:04.099Z,3.72
2022-12-17T10:44:53.139Z,3.51
2022-12-17T10:47:44.088Z,3.17
2022-12-17T10:50:32.478Z,3.27
2022-12-17T10:53:18.331Z,3.47
2022-12-17T10:56:14.998Z,3.76
2022-12-17T10:59:05.716Z,3.61
2022-12-17T11:01:51.210Z,3.78
2022-12-17T11:04:48.900Z,3.86
2022-12-17T11:07:42.503Z,3.69
2022-12-17T11:10:37.100Z,4.16
2022-12-17T11:13:27.045Z,4.11
2022-12-17T11:16:17.042Z,4.46
2022-12-17T11:19:32.252Z,4.32
2022-12-17T11:22:24.927Z,3.70
2022-12-17T11:25:21.254Z,3.70
2022-12-17T11:28:12.056Z,4.14
2022-12-17T11:31:13.256Z,3.67
2022-12-17T11:34:11.598Z,3.83
2022-12-17T11:37:20.061Z,4.32
2022-12-17T11:40:20.378Z,4.59
2022-12-17T11:43:17.065Z,4.11
2022-12-17T11:46:20.586Z,3.36
2022-12-17T11:49:18.411Z,3.69
2022-12-17T11:52:09.919Z,3.67
2022-12-17T11:54:58.151Z,3.35
2022-12-17T11:58:01.060Z,3.41
2022-12-17T12:00:46.209Z,3.91
2022-12-17T12:03:37.735Z,4.08
2022-12-17T12:06:39.579Z,3.58
2022-12-17T12:09:30.754Z,3.77
2022-12-17T12:12:45.696Z,3.71
2022-12-17T12:15:58.709Z,4.54
2022-12-17T12:18:59.019Z,3.91
2022-12-17T12:21:57.456Z,4.11
2022-12-17T12:25:09.731Z,4.21
2022-12-17T12:28:22.745Z,3.77
2022-12-17T12:31:15.103Z,3.99
2022-12-17T12:34:16.077Z,3.97
2022-12-17T12:37:04.210Z,4.18
2022-12-17T12:40:07.288Z,3.96
2022-12-17T12:43:03.841Z,3.93
2022-12-17T12:45:54.779Z,3.92
2022-12-17T12:49:05.868Z,3.77
2022-12-17T12:51:56.080Z,3.91
2022-12-17T12:55:09.348Z,3.75
2022-12-17T12:57:55.809Z,4.08
2022-12-17T13:00:43.865Z,4.18
2022-12-17T13:03:47.402Z,4.07
2022-12-17T13:06:35.979Z,4.03
2022-12-17T13:09:18.079Z,3.75
2022-12-17T13:12:04.903Z,3.89
2022-12-17T13:14:53.421Z,4.28
2022-12-17T13:17:31.502Z,3.89
2022-12-17T13:19:58.001Z,4.17
2022-12-17T13:22:27.959Z,3.71
2022-12-17T13:25:15.537Z,3.73
2022-12-17T13:27:43.057Z,4.00
2022-12-17T13:30:15.571Z,4.00
2022-12-17T13:32:59.971Z,4.08
2022-12-17T13:35:53.823Z,4.40
2022-12-17T13:38:39.029Z,3.99
2022-12-17T13:41:10.780Z,3.84
2022-12-17T13:43:40.579Z,4.04
2022-12-17T13:46:07.273Z,4.14
2022-12-17T13:48:33.905Z,4.14
2022-12-17T13:51:03.204Z,4.05
2022-12-17T13:53:34.078Z,3.78
2022-12-17T13:56:01.446Z,4.00
2022-12-17T13:58:33.222Z,3.66
2022-12-17T14:01:15.009Z,3.75
2022-12-17T14:04:05.920Z,3.79
2022-12-17T14:06:36.539Z,3.70
2022-12-17T14:09:03.992Z,3.88
2022-12-17T14:11:51.825Z,3.85
2022-12-17T14:14:32.436Z,3.74
2022-12-17T14:16:59.648Z,3.48
2022-12-17T14:19:27.791Z,3.42
2022-12-17T14:21:55.228Z,3.53
2022-12-17T14:24:27.024Z,3.66
2022-12-17T14:26:57.249Z,3.63
2022-12-17T14:29:26.500Z,3.51
2022-12-17T14:31:58.729Z,3.48
2022-12-17T14:34:25.785Z,3.34
2022-12-17T14:36:58.352Z,3.38
2022-12-17T14:39:33.039Z,3.44
2022-12-17T14:42:28.628Z,3.62
2022-12-17T14:44:57.482Z,3.16
2022-12-17T14:47:33.139Z,3.00
2022-12-17T14:50:05.840Z,2.99
2022-12-17T14:52:41.496Z,3.07
2022-12-17T14:55:29.259Z,3.36
2022-12-17T14:58:13.620Z,3.15
2022-12-17T15:00:43.235Z,3.18
2022-12-17T15:03:17.164Z,3.18
2022-12-17T15:06:02.261Z,3.17
2022-12-17T15:08:36.146Z,3.49
2022-12-17T15:11:03.882Z,2.95
2022-12-17T15:13:30.481Z,2.63
2022-12-17T15:15:57.857Z,2.58
2022-12-17T15:22:16.494Z,3.76
2022-12-17T15:24:44.684Z,3.06
2022-12-17T15:27:16.289Z,2.96
2022-12-17T15:29:44.813Z,3.07
2022-12-17T15:32:18.715Z,3.20
2022-12-17T15:34:46.087Z,2.97
2022-12-17T15:37:13.675Z,2.89
2022-12-17T15:39:40.392Z,3.22
2022-12-17T15:42:25.466Z,2.96
2022-12-17T15:44:52.391Z,3.23
2022-12-17T15:47:19.033Z,3.09
2022-12-17T15:49:45.669Z,2.84
2022-12-17T15:52:15.615Z,2.87
2022-12-17T15:54:43.250Z,2.57
2022-12-17T15:57:15.358Z,2.63
2022-12-17T15:59:45.056Z,2.64
2022-12-17T16:02:12.104Z,2.97
2022-12-17T16:04:38.900Z,2.83
2022-12-17T16:07:05.767Z,2.91
2022-12-17T16:09:32.456Z,2.82
2022-12-17T16:11:59.164Z,2.74
2022-12-17T16:14:25.941Z,2.69
2022-12-17T16:16:53.134Z,2.76
2022-12-17T16:19:19.742Z,2.85
2022-12-17T16:21:49.474Z,2.80
2022-12-17T16:24:16.278Z,3.16
2022-12-17T16:26:42.928Z,2.76
2022-12-17T16:29:12.490Z,2.78
2022-12-17T16:31:39.513Z,2.73
2022-12-17T16:34:11.023Z,2.54
2022-12-17T16:36:37.880Z,2.54
2022-12-17T16:39:05.735Z,3.31
2022-12-17T16:41:32.886Z,3.21
2022-12-17T16:44:00.812Z,2.64
2022-12-17T16:46:33.357Z,3.24
2022-12-17T16:49:12.015Z,3.32
2022-12-17T16:51:39.092Z,3.24
2022-12-17T16:54:13.335Z,2.77
2022-12-17T16:56:40.833Z,3.03
2022-12-17T16:59:08.758Z,2.63
2022-12-17T17:01:38.622Z,2.86
2022-12-17T17:04:08.386Z,2.66
2022-12-17T17:06:39.653Z,2.53
2022-12-17T17:09:07.067Z,2.72
2022-12-17T17:11:33.994Z,2.46
2022-12-17T17:14:00.945Z,2.30
2022-12-17T17:16:27.723Z,2.77
2022-12-17T17:18:54.590Z,2.38
2022-12-17T17:21:25.642Z,2.51
2022-12-17T17:23:59.727Z,2.70
2022-12-17T17:26:31.868Z,2.54
2022-12-17T17:28:59.119Z,2.39
2022-12-17T17:31:46.352Z,2.65
2022-12-17T17:34:14.683Z,2.15
2022-12-17T17:36:41.770Z,2.21
2022-12-17T17:39:08.695Z,2.22
2022-12-17T17:41:36.032Z,2.51
2022-12-17T17:44:05.645Z,2.44
2022-12-17T17:46:33.743Z,2.11
2022-12-17T17:49:02.405Z,2.04
2022-12-17T17:54:28.268Z,2.06
2022-12-17T17:56:55.615Z,2.33
2022-12-17T17:59:29.174Z,2.63
2022-12-17T18:02:00.022Z,2.31
2022-12-17T18:04:26.829Z,2.05
2022-12-17T18:07:23.662Z,1.82
2022-12-17T18:09:40.044Z,1.98
2022-12-17T18:12:26.026Z,2.26
2022-12-17T18:15:13.283Z,2.13
2022-12-17T18:17:39.426Z,2.02
2022-12-17T18:20:06.634Z,2.07
2022-12-17T18:22:33.303Z,2.30
2022-12-17T18:24:59.893Z,2.15
2022-12-17T18:27:26.555Z,1.57
2022-12-17T18:29:54.236Z,1.93
2022-12-17T18:32:20.922Z,1.58
2022-12-17T18:34:47.704Z,1.59
2022-12-17T18:37:14.452Z,1.39
2022-12-17T18:39:41.156Z,1.35
2022-12-17T18:42:27.984Z,1.77
2022-12-17T18:44:54.714Z,2.17
2022-12-17T18:47:21.558Z,1.62
2022-12-17T18:49:48.428Z,1.54
2022-12-17T18:52:17.376Z,1.97
2022-12-17T18:54:44.950Z,1.47
2022-12-17T18:57:11.886Z,1.89
2022-12-17T18:59:40.986Z,1.50
2022-12-17T19:02:15.562Z,1.44
2022-12-17T19:04:43.032Z,1.28
2022-12-17T19:07:09.849Z,1.47
2022-12-17T19:09:37.025Z,1.62
2022-12-17T19:12:08.856Z,1.51
2022-12-17T19:14:36.705Z,1.42
2022-12-17T19:17:05.132Z,1.19
2022-12-17T19:19:32.875Z,1.24
2022-12-17T19:22:00.294Z,1.26
2022-12-17T19:24:27.309Z,1.15
2022-12-17T19:26:54.205Z,1.69
2022-12-17T19:29:21.254Z,1.38
2022-12-17T19:31:48.523Z,1.12
2022-12-17T19:34:17.247Z,1.27
2022-12-17T19:36:44.999Z,1.11
2022-12-17T19:39:14.573Z,1.28
2022-12-17T19:41:41.424Z,1.04
2022-12-17T19:44:12.393Z,1.56
2022-12-17T19:46:40.224Z,1.56
2022-12-17T19:49:08.517Z,1.43
2022-12-17T19:51:38.817Z,1.15
2022-12-17T19:54:08.918Z,1.17
2022-12-17T19:56:36.526Z,1.32
2022-12-17T19:59:09.248Z,1.06
2022-12-17T20:01:39.983Z,1.49
2022-12-17T20:04:06.780Z,1.56
2022-12-17T20:06:35.111Z,1.30
2022-12-17T20:09:04.257Z,0.98
2022-12-17T20:11:34.591Z,1.35
2022-12-17T20:14:07.491Z,1.73
2022-12-17T20:16:41.029Z,1.18
2022-12-17T20:19:11.878Z,1.28
2022-12-17T20:21:38.889Z,1.33
2022-12-17T20:24:05.839Z,1.17
2022-12-17T20:26:32.582Z,1.45
2022-12-17T20:28:59.405Z,1.49
2022-12-17T20:31:27.241Z,1.11
2022-12-17T20:33:54.182Z,1.38
2022-12-17T20:36:21.996Z,1.40
2022-12-17T20:38:49.657Z,1.63
2022-12-17T20:41:22.672Z,1.36
2022-12-17T20:43:50.444Z,1.08
2022-12-17T20:46:19.136Z,0.85
2022-12-17T20:48:46.285Z,1.20
2022-12-17T20:51:20.735Z,1.11
2022-12-17T20:53:47.598Z,1.02
2022-12-17T20:56:19.906Z,1.18
2022-12-17T20:58:46.776Z,0.79
2022-12-17T21:01:19.015Z,1.00
2022-12-17T21:03:47.396Z,1.01
2022-12-17T21:06:20.367Z,1.22
2022-12-17T21:08:50.229Z,1.36
2022-12-17T21:11:19.921Z,1.17
2022-12-17T21:13:47.113Z,1.16
2022-12-17T21:16:22.075Z,1.27
2022-12-17T21:18:48.850Z,1.13
2022-12-17T21:21:23.151Z,1.08
2022-12-17T21:23:50.704Z,1.23
2022-12-17T21:26:21.204Z,1.05
2022-12-17T21:28:50.327Z,0.95
2022-12-17T21:31:27.633Z,0.78
2022-12-17T21:33:57.518Z,0.55
2022-12-17T21:36:26.416Z,0.83
2022-12-17T21:38:53.715Z,1.10
2022-12-17T21:41:23.290Z,1.10
2022-12-17T21:43:54.920Z,0.63
2022-12-17T21:46:21.832Z,0.80
2022-12-17T21:48:48.921Z,0.98
2022-12-17T21:51:16.433Z,0.72
2022-12-17T21:53:43.717Z,0.38
2022-12-17T21:56:14.165Z,0.67
2022-12-17T21:58:42.550Z,0.85
2022-12-17T22:01:19.841Z,0.66
2022-12-17T22:03:53.312Z,0.57
2022-12-17T22:06:24.933Z,0.51
2022-12-17T22:08:59.897Z,0.41
2022-12-17T22:11:28.346Z,0.50
2022-12-17T22:14:07.322Z,0.90
2022-12-17T22:16:43.589Z,0.71
2022-12-17T22:19:12.111Z,0.95
2022-12-17T22:21:40.842Z,0.92
2022-12-17T22:24:11.530Z,1.31
2022-12-17T22:26:38.261Z,0.48
2022-12-17T22:29:04.900Z,0.66
2022-12-17T22:31:49.881Z,0.55
2022-12-17T22:35:22.230Z,0.67
2022-12-17T22:40:21.340Z,0.75
2022-12-17T22:43:42.651Z,0.74
2022-12-17T22:44:40.880Z,1.12
2022-12-17T22:45:42.999Z,0.84
2022-12-17T22:48:11.239Z,1.06
2022-12-17T22:50:45.858Z,0.67
2022-12-17T22:53:17.531Z,0.36
2022-12-17T22:55:44.747Z,0.38
2022-12-17T22:58:11.650Z,0.64
2022-12-17T23:00:38.488Z,0.72
2022-12-17T23:03:05.488Z,1.04
2022-12-17T23:05:33.823Z,0.77
2022-12-17T23:08:00.827Z,0.48
2022-12-17T23:10:28.506Z,0.73
2022-12-17T23:12:55.768Z,0.80
2022-12-17T23:15:36.724Z,1.07
2022-12-17T23:18:06.957Z,1.04
2022-12-17T23:20:35.365Z,1.07
2022-12-17T23:23:02.391Z,0.69
2022-12-17T23:25:29.485Z,0.53
2022-12-17T23:27:56.206Z,0.57
2022-12-17T23:30:24.395Z,0.57
2022-12-17T23:32:51.042Z,0.57
2022-12-17T23:35:17.674Z,0.84
2022-12-17T23:37:44.326Z,0.42
2022-12-17T23:40:12.295Z,0.21
2022-12-17T23:42:39.482Z,0.65
2022-12-17T23:45:06.664Z,0.57
2022-12-17T23:47:33.924Z,0.91
2022-12-17T23:50:00.526Z,0.77
2022-12-17T23:52:27.201Z,0.37
2022-12-17T23:54:54.064Z,0.60
2022-12-17T23:57:20.704Z,0.01
2022-12-17T23:59:47.350Z,0.19
